sensor_id;sensor_type;location;lat;lon;timestamp;temperature;humidity
50969;DHT22;36982;51.474;7.228;2023-02-21T00:02:28;8.40;99.90
50969;DHT22;36982;51.474;7.228;2023-02-21T00:05:13;8.50;99.90
50969;DHT22;36982;51.474;7.228;2023-02-21T00:07:57;8.40;99.90
50969;DHT22;36982;51.474;7.228;2023-02-21T00:10:41;8.30;99.90
50969;DHT22;36982;51.474;7.228;2023-02-21T00:13:26;8.30;99.90
50969;DHT22;36982;51.474;7.228;2023-02-21T00:16:15;8.30;99.90
50969;DHT22;36982;51.474;7.228;2023-02-21T00:18:59;8.40;99.90
50969;DHT22;36982;51.474;7.228;2023-02-21T00:21:43;8.40;99.90
50969;DHT22;36982;51.474;7.228;2023-02-21T00:24:27;8.40;99.90
50969;DHT22;36982;51.474;7.228;2023-02-21T00:27:12;8.30;99.90
50969;DHT22;36982;51.474;7.228;2023-02-21T00:29:56;8.40;99.90
50969;DHT22;36982;51.474;7.228;2023-02-21T00:32:40;8.40;99.90
50969;DHT22;36982;51.474;7.228;2023-02-21T00:35:25;8.40;99.90
50969;DHT22;36982;51.474;7.228;2023-02-21T00:38:10;8.50;99.90
50969;DHT22;36982;51.474;7.228;2023-02-21T00:40:54;8.40;99.90
50969;DHT22;36982;51.474;7.228;2023-02-21T00:43:39;8.40;99.90
50969;DHT22;36982;51.474;7.228;2023-02-21T00:46:23;8.40;99.90
50969;DHT22;36982;51.474;7.228;2023-02-21T00:49:09;8.40;99.90
50969;DHT22;36982;51.474;7.228;2023-02-21T00:51:53;8.40;99.90
50969;DHT22;36982;51.474;7.228;2023-02-21T00:54:38;8.40;99.90
50969;DHT22;36982;51.474;7.228;2023-02-21T00:57:22;8.50;99.90
50969;DHT22;36982;51.474;7.228;2023-02-21T01:00:13;8.50;99.90
50969;DHT22;36982;51.474;7.228;2023-02-21T01:02:57;8.50;99.90
50969;DHT22;36982;51.474;7.228;2023-02-21T01:05:41;8.40;99.90
50969;DHT22;36982;51.474;7.228;2023-02-21T01:08:26;8.40;99.90
50969;DHT22;36982;51.474;7.228;2023-02-21T01:11:15;8.40;99.90
50969;DHT22;36982;51.474;7.228;2023-02-21T01:13:59;8.40;99.90
50969;DHT22;36982;51.474;7.228;2023-02-21T01:16:44;8.30;99.90
50969;DHT22;36982;51.474;7.228;2023-02-21T01:19:28;8.40;99.90
50969;DHT22;36982;51.474;7.228;2023-02-21T01:22:12;8.50;99.90
50969;DHT22;36982;51.474;7.228;2023-02-21T01:24:56;8.40;99.90
50969;DHT22;36982;51.474;7.228;2023-02-21T01:27:41;8.30;99.90
50969;DHT22;36982;51.474;7.228;2023-02-21T01:30:25;8.40;99.90
50969;DHT22;36982;51.474;7.228;2023-02-21T01:33:10;8.30;99.90
50969;DHT22;36982;51.474;7.228;2023-02-21T01:35:54;8.30;99.90
50969;DHT22;36982;51.474;7.228;2023-02-21T01:38:38;8.30;99.90
50969;DHT22;36982;51.474;7.228;2023-02-21T01:41:22;8.30;99.90
50969;DHT22;36982;51.474;7.228;2023-02-21T01:44:32;8.20;99.90
50969;DHT22;36982;51.474;7.228;2023-02-21T01:47:17;8.20;99.90
50969;DHT22;36982;51.474;7.228;2023-02-21T01:50:08;8.10;99.90
50969;DHT22;36982;51.474;7.228;2023-02-21T01:52:53;8.10;99.90
50969;DHT22;36982;51.474;7.228;2023-02-21T01:55:39;8.20;99.90
50969;DHT22;36982;51.474;7.228;2023-02-21T01:58:26;8.30;99.90
50969;DHT22;36982;51.474;7.228;2023-02-21T02:01:16;8.30;99.90
50969;DHT22;36982;51.474;7.228;2023-02-21T02:04:02;8.30;99.90
50969;DHT22;36982;51.474;7.228;2023-02-21T02:06:46;8.20;99.90
50969;DHT22;36982;51.474;7.228;2023-02-21T02:09:31;8.20;99.90
50969;DHT22;36982;51.474;7.228;2023-02-21T02:18:02;7.90;99.90
50969;DHT22;36982;51.474;7.228;2023-02-21T02:26:27;8.10;99.90
50969;DHT22;36982;51.474;7.228;2023-02-21T02:34:50;8.20;99.90
50969;DHT22;36982;51.474;7.228;2023-02-21T02:40:16;8.30;99.90
50969;DHT22;36982;51.474;7.228;2023-02-21T02:45:27;8.50;99.90
50969;DHT22;36982;51.474;7.228;2023-02-21T02:48:02;8.40;99.90
50969;DHT22;36982;51.474;7.228;2023-02-21T02:50:31;8.40;99.90
50969;DHT22;36982;51.474;7.228;2023-02-21T02:53:01;8.40;99.90
50969;DHT22;36982;51.474;7.228;2023-02-21T02:55:50;8.40;99.90
50969;DHT22;36982;51.474;7.228;2023-02-21T02:58:17;8.30;99.90
50969;DHT22;36982;51.474;7.228;2023-02-21T03:00:50;8.30;99.90
50969;DHT22;36982;51.474;7.228;2023-02-21T03:03:37;8.30;99.90
50969;DHT22;36982;51.474;7.228;2023-02-21T03:06:06;8.30;99.90
50969;DHT22;36982;51.474;7.228;2023-02-21T03:09:00;8.20;99.90
50969;DHT22;36982;51.474;7.228;2023-02-21T03:11:26;8.20;99.90
50969;DHT22;36982;51.474;7.228;2023-02-21T03:16:46;8.10;99.90
50969;DHT22;36982;51.474;7.228;2023-02-21T03:19:21;8.00;99.90
50969;DHT22;36982;51.474;7.228;2023-02-21T03:21:51;8.00;99.90
50969;DHT22;36982;51.474;7.228;2023-02-21T03:24:19;8.10;99.90
50969;DHT22;36982;51.474;7.228;2023-02-21T03:26:50;8.10;99.90
50969;DHT22;36982;51.474;7.228;2023-02-21T03:29:16;8.10;99.90
50969;DHT22;36982;51.474;7.228;2023-02-21T03:31:47;8.10;99.90
50969;DHT22;36982;51.474;7.228;2023-02-21T03:34:14;8.10;99.90
50969;DHT22;36982;51.474;7.228;2023-02-21T03:36:40;8.10;99.90
50969;DHT22;36982;51.474;7.228;2023-02-21T03:39:06;8.20;99.90
50969;DHT22;36982;51.474;7.228;2023-02-21T03:41:32;8.30;99.90
50969;DHT22;36982;51.474;7.228;2023-02-21T03:43:57;8.40;99.90
50969;DHT22;36982;51.474;7.228;2023-02-21T03:46:23;8.50;99.90
50969;DHT22;36982;51.474;7.228;2023-02-21T03:48:49;8.40;99.90
50969;DHT22;36982;51.474;7.228;2023-02-21T03:51:15;8.40;99.90
50969;DHT22;36982;51.474;7.228;2023-02-21T03:53:40;8.30;99.90
50969;DHT22;36982;51.474;7.228;2023-02-21T03:56:06;8.30;99.90
50969;DHT22;36982;51.474;7.228;2023-02-21T03:58:32;8.30;99.90
50969;DHT22;36982;51.474;7.228;2023-02-21T04:00:58;8.30;99.90
50969;DHT22;36982;51.474;7.228;2023-02-21T04:03:24;8.30;99.90
50969;DHT22;36982;51.474;7.228;2023-02-21T04:05:49;8.20;99.90
50969;DHT22;36982;51.474;7.228;2023-02-21T04:08:15;8.10;99.90
50969;DHT22;36982;51.474;7.228;2023-02-21T04:10:41;8.10;99.90
50969;DHT22;36982;51.474;7.228;2023-02-21T04:13:06;8.00;99.90
50969;DHT22;36982;51.474;7.228;2023-02-21T04:15:33;8.10;99.90
50969;DHT22;36982;51.474;7.228;2023-02-21T04:17:59;8.10;99.90
50969;DHT22;36982;51.474;7.228;2023-02-21T04:20:24;8.10;99.90
50969;DHT22;36982;51.474;7.228;2023-02-21T04:22:50;8.10;99.90
50969;DHT22;36982;51.474;7.228;2023-02-21T04:25:16;8.10;99.90
50969;DHT22;36982;51.474;7.228;2023-02-21T04:27:41;8.10;99.90
50969;DHT22;36982;51.474;7.228;2023-02-21T04:30:07;8.20;99.90
50969;DHT22;36982;51.474;7.228;2023-02-21T04:32:33;8.20;99.90
50969;DHT22;36982;51.474;7.228;2023-02-21T04:34:59;8.10;99.90
50969;DHT22;36982;51.474;7.228;2023-02-21T04:37:24;8.10;99.90
50969;DHT22;36982;51.474;7.228;2023-02-21T04:39:50;8.10;99.90
50969;DHT22;36982;51.474;7.228;2023-02-21T04:42:15;8.20;99.90
50969;DHT22;36982;51.474;7.228;2023-02-21T04:44:41;8.10;99.90
50969;DHT22;36982;51.474;7.228;2023-02-21T04:47:07;8.00;99.90
50969;DHT22;36982;51.474;7.228;2023-02-21T04:49:32;8.00;99.90
50969;DHT22;36982;51.474;7.228;2023-02-21T04:51:58;8.00;99.90
50969;DHT22;36982;51.474;7.228;2023-02-21T04:54:23;8.00;99.90
50969;DHT22;36982;51.474;7.228;2023-02-21T04:56:49;7.90;99.90
50969;DHT22;36982;51.474;7.228;2023-02-21T04:59:15;7.90;99.90
50969;DHT22;36982;51.474;7.228;2023-02-21T05:01:40;7.90;99.90
50969;DHT22;36982;51.474;7.228;2023-02-21T05:04:06;7.90;99.90
50969;DHT22;36982;51.474;7.228;2023-02-21T05:06:32;8.00;99.90
50969;DHT22;36982;51.474;7.228;2023-02-21T05:08:59;8.00;99.90
50969;DHT22;36982;51.474;7.228;2023-02-21T05:11:25;8.00;99.90
50969;DHT22;36982;51.474;7.228;2023-02-21T05:13:52;7.90;99.90
50969;DHT22;36982;51.474;7.228;2023-02-21T05:16:18;7.90;99.90
50969;DHT22;36982;51.474;7.228;2023-02-21T05:18:46;8.00;99.90
50969;DHT22;36982;51.474;7.228;2023-02-21T05:21:12;8.10;99.90
50969;DHT22;36982;51.474;7.228;2023-02-21T05:23:39;8.10;99.90
50969;DHT22;36982;51.474;7.228;2023-02-21T05:26:10;8.10;99.90
50969;DHT22;36982;51.474;7.228;2023-02-21T05:28:37;8.10;99.90
50969;DHT22;36982;51.474;7.228;2023-02-21T05:31:03;8.20;99.90
50969;DHT22;36982;51.474;7.228;2023-02-21T05:33:29;8.20;99.90
50969;DHT22;36982;51.474;7.228;2023-02-21T05:35:55;8.20;99.90
50969;DHT22;36982;51.474;7.228;2023-02-21T05:38:22;8.00;99.90
50969;DHT22;36982;51.474;7.228;2023-02-21T05:40:48;8.10;99.90
50969;DHT22;36982;51.474;7.228;2023-02-21T05:43:14;8.10;99.90
50969;DHT22;36982;51.474;7.228;2023-02-21T05:45:40;8.20;99.90
50969;DHT22;36982;51.474;7.228;2023-02-21T05:48:05;8.20;99.90
50969;DHT22;36982;51.474;7.228;2023-02-21T05:50:31;8.10;99.90
50969;DHT22;36982;51.474;7.228;2023-02-21T05:52:57;8.10;99.90
50969;DHT22;36982;51.474;7.228;2023-02-21T05:55:23;8.10;99.90
50969;DHT22;36982;51.474;7.228;2023-02-21T05:57:49;8.30;99.90
50969;DHT22;36982;51.474;7.228;2023-02-21T06:00:33;8.30;99.90
50969;DHT22;36982;51.474;7.228;2023-02-21T06:02:58;8.50;99.90
50969;DHT22;36982;51.474;7.228;2023-02-21T06:05:24;8.60;99.90
50969;DHT22;36982;51.474;7.228;2023-02-21T06:07:50;8.60;99.90
50969;DHT22;36982;51.474;7.228;2023-02-21T06:10:36;8.60;99.90
50969;DHT22;36982;51.474;7.228;2023-02-21T06:13:02;8.40;99.90
50969;DHT22;36982;51.474;7.228;2023-02-21T06:15:27;8.40;99.90
50969;DHT22;36982;51.474;7.228;2023-02-21T06:17:53;8.40;99.90
50969;DHT22;36982;51.474;7.228;2023-02-21T06:20:19;8.40;99.90
50969;DHT22;36982;51.474;7.228;2023-02-21T06:22:44;8.40;99.90
50969;DHT22;36982;51.474;7.228;2023-02-21T06:25:10;8.40;99.90
50969;DHT22;36982;51.474;7.228;2023-02-21T06:27:36;8.40;99.90
50969;DHT22;36982;51.474;7.228;2023-02-21T06:30:03;8.50;99.90
50969;DHT22;36982;51.474;7.228;2023-02-21T06:32:28;8.50;99.90
50969;DHT22;36982;51.474;7.228;2023-02-21T06:34:54;8.50;99.90
50969;DHT22;36982;51.474;7.228;2023-02-21T06:37:20;8.30;99.90
50969;DHT22;36982;51.474;7.228;2023-02-21T06:39:45;8.10;99.90
50969;DHT22;36982;51.474;7.228;2023-02-21T06:42:15;8.10;99.90
50969;DHT22;36982;51.474;7.228;2023-02-21T06:44:46;8.10;99.90
50969;DHT22;36982;51.474;7.228;2023-02-21T06:47:12;8.10;99.90
50969;DHT22;36982;51.474;7.228;2023-02-21T06:49:38;8.00;99.90
50969;DHT22;36982;51.474;7.228;2023-02-21T06:52:04;8.00;99.90
50969;DHT22;36982;51.474;7.228;2023-02-21T06:54:30;8.00;99.90
50969;DHT22;36982;51.474;7.228;2023-02-21T06:56:56;7.90;99.90
50969;DHT22;36982;51.474;7.228;2023-02-21T06:59:22;7.90;99.90
50969;DHT22;36982;51.474;7.228;2023-02-21T07:01:47;7.90;99.90
50969;DHT22;36982;51.474;7.228;2023-02-21T07:04:13;8.00;99.90
50969;DHT22;36982;51.474;7.228;2023-02-21T07:06:38;8.00;99.90
50969;DHT22;36982;51.474;7.228;2023-02-21T07:09:04;8.10;99.90
50969;DHT22;36982;51.474;7.228;2023-02-21T07:11:31;8.10;99.90
50969;DHT22;36982;51.474;7.228;2023-02-21T07:13:58;8.20;99.90
50969;DHT22;36982;51.474;7.228;2023-02-21T07:16:24;8.20;99.90
50969;DHT22;36982;51.474;7.228;2023-02-21T07:18:49;8.10;99.90
50969;DHT22;36982;51.474;7.228;2023-02-21T07:21:16;8.10;99.90
50969;DHT22;36982;51.474;7.228;2023-02-21T07:23:43;8.10;99.90
50969;DHT22;36982;51.474;7.228;2023-02-21T07:26:09;8.10;99.90
50969;DHT22;36982;51.474;7.228;2023-02-21T07:28:35;8.10;99.90
50969;DHT22;36982;51.474;7.228;2023-02-21T07:31:01;8.20;99.90
50969;DHT22;36982;51.474;7.228;2023-02-21T07:33:26;8.20;99.90
50969;DHT22;36982;51.474;7.228;2023-02-21T07:35:52;8.10;99.90
50969;DHT22;36982;51.474;7.228;2023-02-21T07:38:21;8.10;99.90
50969;DHT22;36982;51.474;7.228;2023-02-21T07:40:47;8.20;99.90
50969;DHT22;36982;51.474;7.228;2023-02-21T07:43:14;8.20;99.90
50969;DHT22;36982;51.474;7.228;2023-02-21T07:45:40;8.30;99.90
50969;DHT22;36982;51.474;7.228;2023-02-21T07:48:06;8.30;99.90
50969;DHT22;36982;51.474;7.228;2023-02-21T07:50:31;8.20;99.90
50969;DHT22;36982;51.474;7.228;2023-02-21T07:52:57;8.20;99.90
50969;DHT22;36982;51.474;7.228;2023-02-21T07:55:24;8.20;99.90
50969;DHT22;36982;51.474;7.228;2023-02-21T07:57:50;8.10;99.90
50969;DHT22;36982;51.474;7.228;2023-02-21T08:00:16;8.20;99.90
50969;DHT22;36982;51.474;7.228;2023-02-21T08:02:46;8.30;99.90
50969;DHT22;36982;51.474;7.228;2023-02-21T08:05:14;8.30;99.90
50969;DHT22;36982;51.474;7.228;2023-02-21T08:07:40;8.20;99.90
50969;DHT22;36982;51.474;7.228;2023-02-21T08:10:06;8.30;99.90
50969;DHT22;36982;51.474;7.228;2023-02-21T08:12:31;8.30;99.90
50969;DHT22;36982;51.474;7.228;2023-02-21T08:15:02;8.30;99.90
50969;DHT22;36982;51.474;7.228;2023-02-21T08:17:29;8.20;99.90
50969;DHT22;36982;51.474;7.228;2023-02-21T08:19:54;8.20;99.90
50969;DHT22;36982;51.474;7.228;2023-02-21T08:22:20;8.20;99.90
50969;DHT22;36982;51.474;7.228;2023-02-21T08:24:48;8.20;99.90
50969;DHT22;36982;51.474;7.228;2023-02-21T08:27:14;8.20;99.90
50969;DHT22;36982;51.474;7.228;2023-02-21T08:29:40;8.20;99.90
50969;DHT22;36982;51.474;7.228;2023-02-21T08:32:06;8.20;99.90
50969;DHT22;36982;51.474;7.228;2023-02-21T08:34:33;8.20;99.90
50969;DHT22;36982;51.474;7.228;2023-02-21T08:36:58;8.30;99.90
50969;DHT22;36982;51.474;7.228;2023-02-21T08:39:24;8.40;99.90
50969;DHT22;36982;51.474;7.228;2023-02-21T08:41:51;8.30;99.90
50969;DHT22;36982;51.474;7.228;2023-02-21T08:44:18;8.30;99.90
50969;DHT22;36982;51.474;7.228;2023-02-21T08:46:46;8.50;99.90
50969;DHT22;36982;51.474;7.228;2023-02-21T08:49:12;8.50;99.90
50969;DHT22;36982;51.474;7.228;2023-02-21T08:51:37;8.40;99.90
50969;DHT22;36982;51.474;7.228;2023-02-21T08:54:05;8.50;99.90
50969;DHT22;36982;51.474;7.228;2023-02-21T08:56:31;8.30;99.90
50969;DHT22;36982;51.474;7.228;2023-02-21T08:58:57;8.20;99.90
50969;DHT22;36982;51.474;7.228;2023-02-21T09:01:23;8.20;99.90
50969;DHT22;36982;51.474;7.228;2023-02-21T09:03:49;8.30;99.90
50969;DHT22;36982;51.474;7.228;2023-02-21T09:06:16;8.10;99.90
50969;DHT22;36982;51.474;7.228;2023-02-21T09:08:42;8.20;99.90
50969;DHT22;36982;51.474;7.228;2023-02-21T09:11:08;8.20;99.90
50969;DHT22;36982;51.474;7.228;2023-02-21T09:13:34;8.30;99.90
50969;DHT22;36982;51.474;7.228;2023-02-21T09:16:04;8.40;99.90
50969;DHT22;36982;51.474;7.228;2023-02-21T09:18:30;8.30;99.90
50969;DHT22;36982;51.474;7.228;2023-02-21T09:20:56;8.20;99.90
50969;DHT22;36982;51.474;7.228;2023-02-21T09:23:24;8.20;99.90
50969;DHT22;36982;51.474;7.228;2023-02-21T09:25:51;8.20;99.90
50969;DHT22;36982;51.474;7.228;2023-02-21T09:28:17;8.20;99.90
50969;DHT22;36982;51.474;7.228;2023-02-21T09:30:42;8.20;99.90
50969;DHT22;36982;51.474;7.228;2023-02-21T09:33:22;8.20;99.90
50969;DHT22;36982;51.474;7.228;2023-02-21T09:35:48;8.30;99.90
50969;DHT22;36982;51.474;7.228;2023-02-21T09:38:15;8.10;99.90
50969;DHT22;36982;51.474;7.228;2023-02-21T09:43:18;8.20;99.90
50969;DHT22;36982;51.474;7.228;2023-02-21T09:45:45;8.30;99.90
50969;DHT22;36982;51.474;7.228;2023-02-21T09:48:17;8.20;99.90
50969;DHT22;36982;51.474;7.228;2023-02-21T09:50:58;8.20;99.90
50969;DHT22;36982;51.474;7.228;2023-02-21T09:53:33;8.20;99.90
50969;DHT22;36982;51.474;7.228;2023-02-21T09:56:26;8.20;99.90
50969;DHT22;36982;51.474;7.228;2023-02-21T09:59:10;8.20;99.90
50969;DHT22;36982;51.474;7.228;2023-02-21T10:08:03;8.20;99.90
50969;DHT22;36982;51.474;7.228;2023-02-21T10:10:50;8.30;99.90
50969;DHT22;36982;51.474;7.228;2023-02-21T10:13:41;8.30;99.90
50969;DHT22;36982;51.474;7.228;2023-02-21T10:16:28;8.20;99.90
50969;DHT22;36982;51.474;7.228;2023-02-21T10:19:23;8.30;99.90
50969;DHT22;36982;51.474;7.228;2023-02-21T10:21:52;8.40;99.90
50969;DHT22;36982;51.474;7.228;2023-02-21T10:24:21;8.40;99.90
50969;DHT22;36982;51.474;7.228;2023-02-21T10:26:54;8.70;99.90
50969;DHT22;36982;51.474;7.228;2023-02-21T10:29:25;8.50;99.90
50969;DHT22;36982;51.474;7.228;2023-02-21T10:32:07;8.60;99.90
50969;DHT22;36982;51.474;7.228;2023-02-21T10:34:34;8.80;99.90
50969;DHT22;36982;51.474;7.228;2023-02-21T10:40:05;8.60;99.90
50969;DHT22;36982;51.474;7.228;2023-02-21T10:42:51;8.40;99.90
50969;DHT22;36982;51.474;7.228;2023-02-21T10:45:29;8.50;99.90
50969;DHT22;36982;51.474;7.228;2023-02-21T10:48:03;8.40;99.90
50969;DHT22;36982;51.474;7.228;2023-02-21T10:53:08;8.50;99.90
50969;DHT22;36982;51.474;7.228;2023-02-21T10:55:34;8.60;99.90
50969;DHT22;36982;51.474;7.228;2023-02-21T10:58:24;8.80;99.90
50969;DHT22;36982;51.474;7.228;2023-02-21T11:00:51;8.80;99.90
50969;DHT22;36982;51.474;7.228;2023-02-21T11:05:51;8.80;99.90
50969;DHT22;36982;51.474;7.228;2023-02-21T11:08:35;8.80;99.90
50969;DHT22;36982;51.474;7.228;2023-02-21T11:11:02;8.80;99.90
50969;DHT22;36982;51.474;7.228;2023-02-21T11:13:47;8.70;99.90
50969;DHT22;36982;51.474;7.228;2023-02-21T11:16:20;8.80;99.90
50969;DHT22;36982;51.474;7.228;2023-02-21T11:19:04;8.90;99.90
50969;DHT22;36982;51.474;7.228;2023-02-21T11:21:30;8.80;99.90
50969;DHT22;36982;51.474;7.228;2023-02-21T11:23:59;8.80;99.90
50969;DHT22;36982;51.474;7.228;2023-02-21T11:26:32;8.70;99.90
50969;DHT22;36982;51.474;7.228;2023-02-21T11:29:09;8.70;99.90
50969;DHT22;36982;51.474;7.228;2023-02-21T11:31:36;8.70;99.90
50969;DHT22;36982;51.474;7.228;2023-02-21T11:34:09;8.60;99.90
50969;DHT22;36982;51.474;7.228;2023-02-21T11:36:39;8.90;99.90
50969;DHT22;36982;51.474;7.228;2023-02-21T11:41:49;9.00;99.90
50969;DHT22;36982;51.474;7.228;2023-02-21T11:44:30;8.90;99.90
50969;DHT22;36982;51.474;7.228;2023-02-21T11:47:24;9.00;99.90
50969;DHT22;36982;51.474;7.228;2023-02-21T11:50:12;9.20;99.90
50969;DHT22;36982;51.474;7.228;2023-02-21T11:53:03;9.30;99.90
50969;DHT22;36982;51.474;7.228;2023-02-21T11:55:30;9.40;99.90
50969;DHT22;36982;51.474;7.228;2023-02-21T11:58:05;9.60;99.90
50969;DHT22;36982;51.474;7.228;2023-02-21T12:12:26;10.60;99.90
50969;DHT22;36982;51.474;7.228;2023-02-21T12:15:11;10.60;99.00
50969;DHT22;36982;51.474;7.228;2023-02-21T12:23:39;10.70;96.70
50969;DHT22;36982;51.474;7.228;2023-02-21T12:37:55;10.40;96.80
50969;DHT22;36982;51.474;7.228;2023-02-21T12:41:11;10.40;96.90
50969;DHT22;36982;51.474;7.228;2023-02-21T12:43:40;10.30;97.40
50969;DHT22;36982;51.474;7.228;2023-02-21T12:48:42;10.30;98.30
50969;DHT22;36982;51.474;7.228;2023-02-21T12:51:16;10.40;97.30
50969;DHT22;36982;51.474;7.228;2023-02-21T12:53:56;10.30;97.60
50969;DHT22;36982;51.474;7.228;2023-02-21T12:56:39;10.40;97.90
50969;DHT22;36982;51.474;7.228;2023-02-21T12:59:38;10.70;96.90
50969;DHT22;36982;51.474;7.228;2023-02-21T13:07:34;11.00;95.10
50969;DHT22;36982;51.474;7.228;2023-02-21T13:10:21;10.90;94.40
50969;DHT22;36982;51.474;7.228;2023-02-21T13:12:55;11.00;94.60
50969;DHT22;36982;51.474;7.228;2023-02-21T13:15:28;11.00;95.20
50969;DHT22;36982;51.474;7.228;2023-02-21T13:20:42;10.90;93.80
50969;DHT22;36982;51.474;7.228;2023-02-21T13:28:41;10.80;93.30
50969;DHT22;36982;51.474;7.228;2023-02-21T13:31:21;10.70;95.60
50969;DHT22;36982;51.474;7.228;2023-02-21T13:33:51;10.80;95.70
50969;DHT22;36982;51.474;7.228;2023-02-21T13:41:32;11.20;94.00
50969;DHT22;36982;51.474;7.228;2023-02-21T13:43:59;11.30;92.80
50969;DHT22;36982;51.474;7.228;2023-02-21T13:49:35;11.20;92.40
50969;DHT22;36982;51.474;7.228;2023-02-21T13:58:22;11.20;92.60
50969;DHT22;36982;51.474;7.228;2023-02-21T14:03:27;11.10;92.70
50969;DHT22;36982;51.474;7.228;2023-02-21T14:13:38;10.90;92.30
50969;DHT22;36982;51.474;7.228;2023-02-21T14:24:04;10.50;94.30
50969;DHT22;36982;51.474;7.228;2023-02-21T14:26:50;10.00;95.40
50969;DHT22;36982;51.474;7.228;2023-02-21T14:37:32;10.20;97.30
50969;DHT22;36982;51.474;7.228;2023-02-21T15:05:28;9.90;98.90
50969;DHT22;36982;51.474;7.228;2023-02-21T15:08:19;10.00;99.50
50969;DHT22;36982;51.474;7.228;2023-02-21T15:10:46;10.00;98.80
50969;DHT22;36982;51.474;7.228;2023-02-21T15:13:33;9.80;98.90
50969;DHT22;36982;51.474;7.228;2023-02-21T15:16:07;9.90;98.70
50969;DHT22;36982;51.474;7.228;2023-02-21T15:18:36;9.80;98.60
50969;DHT22;36982;51.474;7.228;2023-02-21T15:23:41;9.50;99.90
50969;DHT22;36982;51.474;7.228;2023-02-21T15:26:22;9.60;99.90
50969;DHT22;36982;51.474;7.228;2023-02-21T15:29:14;9.70;99.90
50969;DHT22;36982;51.474;7.228;2023-02-21T15:31:50;9.80;99.90
50969;DHT22;36982;51.474;7.228;2023-02-21T15:36:52;9.80;99.80
50969;DHT22;36982;51.474;7.228;2023-02-21T15:39:25;9.70;99.90
50969;DHT22;36982;51.474;7.228;2023-02-21T15:41:53;9.80;99.90
50969;DHT22;36982;51.474;7.228;2023-02-21T15:44:28;9.80;99.90
50969;DHT22;36982;51.474;7.228;2023-02-21T15:47:00;9.70;99.50
50969;DHT22;36982;51.474;7.228;2023-02-21T15:49:40;9.60;99.90
50969;DHT22;36982;51.474;7.228;2023-02-21T15:52:38;9.70;99.90
50969;DHT22;36982;51.474;7.228;2023-02-21T15:58:11;9.80;99.90
50969;DHT22;36982;51.474;7.228;2023-02-21T16:00:45;9.80;99.90
50969;DHT22;36982;51.474;7.228;2023-02-21T16:11:48;9.80;99.90
50969;DHT22;36982;51.474;7.228;2023-02-21T16:17:07;9.90;99.30
50969;DHT22;36982;51.474;7.228;2023-02-21T16:19:33;10.00;99.40
50969;DHT22;36982;51.474;7.228;2023-02-21T16:25:16;9.80;99.20
50969;DHT22;36982;51.474;7.228;2023-02-21T16:27:53;9.90;99.40
50969;DHT22;36982;51.474;7.228;2023-02-21T16:30:26;9.90;99.10
50969;DHT22;36982;51.474;7.228;2023-02-21T16:32:57;9.90;98.90
50969;DHT22;36982;51.474;7.228;2023-02-21T16:35:24;9.80;99.50
50969;DHT22;36982;51.474;7.228;2023-02-21T16:37:55;9.70;99.50
50969;DHT22;36982;51.474;7.228;2023-02-21T16:40:29;9.80;99.30
50969;DHT22;36982;51.474;7.228;2023-02-21T16:42:56;9.70;99.90
50969;DHT22;36982;51.474;7.228;2023-02-21T16:45:23;9.70;99.90
50969;DHT22;36982;51.474;7.228;2023-02-21T16:47:54;9.70;99.90
50969;DHT22;36982;51.474;7.228;2023-02-21T16:52:53;9.70;99.60
50969;DHT22;36982;51.474;7.228;2023-02-21T16:55:19;9.70;99.90
50969;DHT22;36982;51.474;7.228;2023-02-21T16:57:57;9.80;99.50
50969;DHT22;36982;51.474;7.228;2023-02-21T17:00:23;9.80;99.40
50969;DHT22;36982;51.474;7.228;2023-02-21T17:02:50;9.70;99.40
50969;DHT22;36982;51.474;7.228;2023-02-21T17:05:18;9.70;99.80
50969;DHT22;36982;51.474;7.228;2023-02-21T17:07:45;9.70;99.30
50969;DHT22;36982;51.474;7.228;2023-02-21T17:10:11;9.70;99.40
50969;DHT22;36982;51.474;7.228;2023-02-21T17:12:37;9.60;99.90
50969;DHT22;36982;51.474;7.228;2023-02-21T17:15:03;9.60;99.90
50969;DHT22;36982;51.474;7.228;2023-02-21T17:17:29;9.60;99.90
50969;DHT22;36982;51.474;7.228;2023-02-21T17:19:55;9.70;99.80
50969;DHT22;36982;51.474;7.228;2023-02-21T17:22:20;9.70;99.70
50969;DHT22;36982;51.474;7.228;2023-02-21T17:24:46;9.60;99.40
50969;DHT22;36982;51.474;7.228;2023-02-21T17:27:11;9.50;99.90
50969;DHT22;36982;51.474;7.228;2023-02-21T17:29:37;9.50;99.90
50969;DHT22;36982;51.474;7.228;2023-02-21T17:32:03;9.50;99.90
50969;DHT22;36982;51.474;7.228;2023-02-21T17:34:32;9.30;99.90
50969;DHT22;36982;51.474;7.228;2023-02-21T17:36:58;9.10;99.90
50969;DHT22;36982;51.474;7.228;2023-02-21T17:39:24;9.00;99.90
50969;DHT22;36982;51.474;7.228;2023-02-21T17:41:51;9.00;99.90
50969;DHT22;36982;51.474;7.228;2023-02-21T17:44:17;9.20;99.90
50969;DHT22;36982;51.474;7.228;2023-02-21T17:46:48;8.90;99.90
50969;DHT22;36982;51.474;7.228;2023-02-21T17:49:19;8.90;99.90
50969;DHT22;36982;51.474;7.228;2023-02-21T17:51:45;9.00;99.90
50969;DHT22;36982;51.474;7.228;2023-02-21T17:54:16;9.00;99.90
50969;DHT22;36982;51.474;7.228;2023-02-21T17:56:42;9.10;99.90
50969;DHT22;36982;51.474;7.228;2023-02-21T17:59:08;9.30;99.90
50969;DHT22;36982;51.474;7.228;2023-02-21T18:01:33;9.40;99.90
50969;DHT22;36982;51.474;7.228;2023-02-21T18:03:59;9.40;99.90
50969;DHT22;36982;51.474;7.228;2023-02-21T18:06:26;9.20;99.90
50969;DHT22;36982;51.474;7.228;2023-02-21T18:08:52;9.20;99.90
50969;DHT22;36982;51.474;7.228;2023-02-21T18:11:20;9.30;99.90
50969;DHT22;36982;51.474;7.228;2023-02-21T18:13:46;9.30;99.90
50969;DHT22;36982;51.474;7.228;2023-02-21T18:16:12;9.40;99.90
50969;DHT22;36982;51.474;7.228;2023-02-21T18:18:38;9.40;99.90
50969;DHT22;36982;51.474;7.228;2023-02-21T18:21:04;9.50;99.90
50969;DHT22;36982;51.474;7.228;2023-02-21T18:23:31;9.40;99.90
50969;DHT22;36982;51.474;7.228;2023-02-21T18:25:57;9.50;99.90
50969;DHT22;36982;51.474;7.228;2023-02-21T18:28:23;9.50;99.90
50969;DHT22;36982;51.474;7.228;2023-02-21T18:30:49;9.60;99.90
50969;DHT22;36982;51.474;7.228;2023-02-21T18:33:16;9.60;99.90
50969;DHT22;36982;51.474;7.228;2023-02-21T18:35:42;9.40;99.90
50969;DHT22;36982;51.474;7.228;2023-02-21T18:38:08;9.40;99.90
50969;DHT22;36982;51.474;7.228;2023-02-21T18:40:33;9.20;99.90
50969;DHT22;36982;51.474;7.228;2023-02-21T18:43:00;9.20;99.90
50969;DHT22;36982;51.474;7.228;2023-02-21T18:45:26;9.20;99.90
50969;DHT22;36982;51.474;7.228;2023-02-21T18:47:52;9.20;99.90
50969;DHT22;36982;51.474;7.228;2023-02-21T18:50:18;9.30;99.90
50969;DHT22;36982;51.474;7.228;2023-02-21T18:52:43;9.20;99.90
50969;DHT22;36982;51.474;7.228;2023-02-21T18:55:09;9.30;99.90
50969;DHT22;36982;51.474;7.228;2023-02-21T18:57:37;9.50;99.90
50969;DHT22;36982;51.474;7.228;2023-02-21T19:00:05;9.30;99.90
50969;DHT22;36982;51.474;7.228;2023-02-21T19:02:32;9.20;99.90
50969;DHT22;36982;51.474;7.228;2023-02-21T19:04:59;9.30;99.90
50969;DHT22;36982;51.474;7.228;2023-02-21T19:07:24;9.10;99.90
50969;DHT22;36982;51.474;7.228;2023-02-21T19:09:50;9.20;99.90
50969;DHT22;36982;51.474;7.228;2023-02-21T19:12:16;9.20;99.90
50969;DHT22;36982;51.474;7.228;2023-02-21T19:14:41;9.30;99.90
50969;DHT22;36982;51.474;7.228;2023-02-21T19:17:07;9.30;99.90